Seaexpressii — HO4619 — position and weather

sailwx.info

Track history (hours):
 
Tides and Currents Weather Stations Pressure Air Temp Water Temp Dewpoint Dewpoint Depression Visibility Wind Speed Wind Dir Waves Ship Positions

Seaexpressii

Last reported at 2016-May-25 12:33 UTC. Time now 2016-May-25 13:01 UTC.
Position N 26°04' W 080°08'.

Length 37 m; draft 2.2 m.

Type: Cargo ship. MMSI: 356449000.

Date/timePositionNaut miles runAvg speedWind from/ knotsBaromVisibWave heightAir tempDewpointWater temp
2016-May-25 12:33N 26°04' W 080°08'0 0.0
2016-May-25 11:33N 26°04' W 080°08'0 0.0
2016-May-25 10:33N 26°04' W 080°08'0 0.0
2016-May-25 09:33N 26°04' W 080°08'0 0.0
2016-May-25 08:33N 26°04' W 080°08'0 0.0
2016-May-25 07:33N 26°04' W 080°08'0 0.0
2016-May-25 06:33N 26°04' W 080°08'0 0.0
2016-May-25 05:33N 26°04' W 080°08'0 0.0
2016-May-25 04:33N 26°04' W 080°08'0 0.0
2016-May-25 03:33N 26°04' W 080°08'0 0.0
2016-May-25 02:33N 26°04' W 080°08'0 0.0
2016-May-25 01:33N 26°04' W 080°08'0 0.0
2016-May-25 00:33N 26°04' W 080°08'0 0.0
2016-May-24 23:33N 26°04' W 080°08'0 0.0
2016-May-24 22:33N 26°04' W 080°08'2 2.5
2016-May-24 21:33N 26°06' W 080°06'1110.7
2016-May-24 20:33N 26°02' W 079°55'1010.5
2016-May-24 19:33N 25°59' W 079°44'1110.7
2016-May-24 18:33N 25°56' W 079°32'  
2016-May-22 06:33N 25°58' W 079°38'9 8.9
2016-May-22 05:33N 26°01' W 079°48'8 8.4
2016-May-22 04:33N 26°03' W 079°56'9 9.2
2016-May-22 03:33N 26°06' W 080°06'2 2.3
2016-May-22 02:33N 26°04' W 080°08'0 0.0
2016-May-22 01:33N 26°04' W 080°08'0 0.0
2016-May-22 00:33N 26°04' W 080°08'0 0.0
2016-May-21 23:33N 26°04' W 080°08'0 0.0
2016-May-21 22:33N 26°04' W 080°08'3 2.9
2016-May-21 21:33N 26°05' W 080°05'1111.1
2016-May-21 20:33N 25°59' W 079°55'1211.9
2016-May-21 19:33N 25°52' W 079°44'3 0.2
2016-May-21 06:28N 25°53' W 079°47'6 7.0
2016-May-21 05:33N 25°57' W 079°53'7 7.0
2016-May-21 04:33N 26°01' W 079°59'8 8.0
2016-May-21 03:33N 26°06' W 080°06'2 2.4
2016-May-21 02:33N 26°04' W 080°08'0 0.0
2016-May-21 01:33N 26°04' W 080°08'0 0.0
2016-May-21 00:33N 26°04' W 080°08'0 0.0
2016-May-20 23:33N 26°04' W 080°08'0 0.0
2016-May-20 22:33N 26°04' W 080°08'0 0.1
2016-May-20 21:33N 26°04' W 080°08'0 0.0
2016-May-20 20:33N 26°04' W 080°08'0 0.0
2016-May-20 19:33N 26°04' W 080°08'0 0.0
2016-May-20 18:33N 26°04' W 080°08'0 0.0
2016-May-20 17:33N 26°04' W 080°08'0 0.0
2016-May-20 16:33N 26°04' W 080°08'0 0.0
2016-May-20 15:33N 26°04' W 080°08'6 5.5
2016-May-20 14:33N 26°05' W 080°02'1010.3
2016-May-20 13:33N 26°01' W 079°51'1110.6
2016-May-20 12:33N 25°58' W 079°40'1110.3
2016-May-20 11:32N 25°55' W 079°29'  
2016-May-17 21:33N 26°04' W 079°44'9 8.8
2016-May-17 20:33N 26°05' W 079°54'8 8.3
2016-May-17 19:33N 26°05' W 080°03'4 4.5
2016-May-17 18:33N 26°04' W 080°08'0 0.0
2016-May-17 17:33N 26°04' W 080°08'0 0.0
2016-May-17 16:33N 26°04' W 080°08'0 0.0
2016-May-17 15:33N 26°04' W 080°08'0 0.0
2016-May-17 14:33N 26°04' W 080°08'3 3.2
2016-May-17 13:33N 26°05' W 080°05'10 9.8
2016-May-17 12:33N 26°02' W 079°54'1010.0
2016-May-17 11:33N 25°59' W 079°44'1010.1
2016-May-17 10:33N 25°56' W 079°33'72 9.8
2016-May-17 03:14N 25°50' W 078°13'76 2.1
2016-May-15 15:20N 26°03' W 079°36'8 9.8
2016-May-15 14:33N 26°03' W 079°45'10 9.9
2016-May-15 13:33N 26°02' W 079°56'10 9.9
2016-May-15 12:33N 26°06' W 080°06'  
Track history (hours):
 
Tides and Currents Weather Stations Pressure Air Temp Water Temp Dewpoint Dewpoint Depression Visibility Wind Speed Wind Dir Waves Ship Positions

Seaexpressii

Last reported at 2016-May-25 12:33 UTC. Time now 2016-May-25 13:01 UTC.
Position N 26°04' W 080°08'.

Length 37 m; draft 2.2 m.

Type: Cargo ship. MMSI: 356449000.

Date/timePositionNaut miles runAvg speedWind from/ knotsBaromVisibWave heightAir tempDewpointWater temp
2016-May-25 12:33N 26°04' W 080°08'0 0.0
2016-May-25 11:33N 26°04' W 080°08'0 0.0
2016-May-25 10:33N 26°04' W 080°08'0 0.0
2016-May-25 09:33N 26°04' W 080°08'0 0.0
2016-May-25 08:33N 26°04' W 080°08'0 0.0
2016-May-25 07:33N 26°04' W 080°08'0 0.0
2016-May-25 06:33N 26°04' W 080°08'0 0.0
2016-May-25 05:33N 26°04' W 080°08'0 0.0
2016-May-25 04:33N 26°04' W 080°08'0 0.0
2016-May-25 03:33N 26°04' W 080°08'0 0.0
2016-May-25 02:33N 26°04' W 080°08'0 0.0
2016-May-25 01:33N 26°04' W 080°08'0 0.0
2016-May-25 00:33N 26°04' W 080°08'0 0.0
2016-May-24 23:33N 26°04' W 080°08'0 0.0
2016-May-24 22:33N 26°04' W 080°08'2 2.5
2016-May-24 21:33N 26°06' W 080°06'1110.7
2016-May-24 20:33N 26°02' W 079°55'1010.5
2016-May-24 19:33N 25°59' W 079°44'1110.7
2016-May-24 18:33N 25°56' W 079°32'  
2016-May-22 06:33N 25°58' W 079°38'9 8.9
2016-May-22 05:33N 26°01' W 079°48'8 8.4
2016-May-22 04:33N 26°03' W 079°56'9 9.2
2016-May-22 03:33N 26°06' W 080°06'2 2.3
2016-May-22 02:33N 26°04' W 080°08'0 0.0
2016-May-22 01:33N 26°04' W 080°08'0 0.0
2016-May-22 00:33N 26°04' W 080°08'0 0.0
2016-May-21 23:33N 26°04' W 080°08'0 0.0
2016-May-21 22:33N 26°04' W 080°08'3 2.9
2016-May-21 21:33N 26°05' W 080°05'1111.1
2016-May-21 20:33N 25°59' W 079°55'1211.9
2016-May-21 19:33N 25°52' W 079°44'3 0.2
2016-May-21 06:28N 25°53' W 079°47'6 7.0
2016-May-21 05:33N 25°57' W 079°53'7 7.0
2016-May-21 04:33N 26°01' W 079°59'8 8.0
2016-May-21 03:33N 26°06' W 080°06'2 2.4
2016-May-21 02:33N 26°04' W 080°08'0 0.0
2016-May-21 01:33N 26°04' W 080°08'0 0.0
2016-May-21 00:33N 26°04' W 080°08'0 0.0
2016-May-20 23:33N 26°04' W 080°08'0 0.0
2016-May-20 22:33N 26°04' W 080°08'0 0.1
2016-May-20 21:33N 26°04' W 080°08'0 0.0
2016-May-20 20:33N 26°04' W 080°08'0 0.0
2016-May-20 19:33N 26°04' W 080°08'0 0.0
2016-May-20 18:33N 26°04' W 080°08'0 0.0
2016-May-20 17:33N 26°04' W 080°08'0 0.0
2016-May-20 16:33N 26°04' W 080°08'0 0.0
2016-May-20 15:33N 26°04' W 080°08'6 5.5
2016-May-20 14:33N 26°05' W 080°02'1010.3
2016-May-20 13:33N 26°01' W 079°51'1110.6
2016-May-20 12:33N 25°58' W 079°40'1110.3
2016-May-20 11:32N 25°55' W 079°29'  
2016-May-17 21:33N 26°04' W 079°44'9 8.8
2016-May-17 20:33N 26°05' W 079°54'8 8.3
2016-May-17 19:33N 26°05' W 080°03'4 4.5
2016-May-17 18:33N 26°04' W 080°08'0 0.0
2016-May-17 17:33N 26°04' W 080°08'0 0.0
2016-May-17 16:33N 26°04' W 080°08'0 0.0
2016-May-17 15:33N 26°04' W 080°08'0 0.0
2016-May-17 14:33N 26°04' W 080°08'3 3.2
2016-May-17 13:33N 26°05' W 080°05'10 9.8
2016-May-17 12:33N 26°02' W 079°54'1010.0
2016-May-17 11:33N 25°59' W 079°44'1010.1
2016-May-17 10:33N 25°56' W 079°33'72 9.8
2016-May-17 03:14N 25°50' W 078°13'76 2.1
2016-May-15 15:20N 26°03' W 079°36'8 9.8
2016-May-15 14:33N 26°03' W 079°45'10 9.9
2016-May-15 13:33N 26°02' W 079°56'10 9.9
2016-May-15 12:33N 26°06' W 080°06'  

Dump ship's entire track history